createdAt,value
2018-03-19T00:00:02.910Z,0
2018-03-19T00:01:02.860Z,0
2018-03-19T00:02:02.834Z,0
2018-03-19T00:03:02.802Z,0
2018-03-19T00:04:02.756Z,0
2018-03-19T00:05:02.725Z,0
2018-03-19T00:06:02.732Z,0
2018-03-19T00:07:02.650Z,0
2018-03-19T00:08:02.618Z,0
2018-03-19T00:09:02.582Z,0
2018-03-19T00:10:02.552Z,0
2018-03-19T00:11:02.516Z,0
2018-03-19T00:12:02.486Z,0
2018-03-19T00:13:02.441Z,0
2018-03-19T00:14:02.419Z,0
2018-03-19T00:15:02.412Z,0
2018-03-19T00:16:02.339Z,0
2018-03-19T00:17:02.303Z,0
2018-03-19T00:18:02.274Z,0
2018-03-19T00:19:01.998Z,0
2018-03-19T00:20:02.204Z,0
2018-03-19T00:21:02.165Z,0
2018-03-19T00:22:01.875Z,0
2018-03-19T00:23:01.595Z,0
2018-03-19T00:24:02.056Z,0
2018-03-19T00:25:02.032Z,0
2018-03-19T00:26:01.983Z,0
2018-03-19T00:27:01.951Z,0
2018-03-19T00:28:01.926Z,0
2018-03-19T00:29:01.629Z,0
2018-03-19T00:30:01.844Z,0
2018-03-19T00:31:01.810Z,0
2018-03-19T00:32:01.534Z,0
2018-03-19T00:33:01.746Z,0
2018-03-19T00:34:01.459Z,0
2018-03-19T00:35:01.672Z,0
2018-03-19T00:36:01.629Z,0
2018-03-19T00:37:01.362Z,0
2018-03-19T00:38:01.555Z,0
2018-03-19T00:39:01.532Z,0
2018-03-19T00:40:01.490Z,0
2018-03-19T00:41:01.458Z,0
2018-03-19T00:42:01.424Z,0
2018-03-19T00:43:01.393Z,0
2018-03-19T00:44:01.350Z,0
2018-03-19T00:45:01.069Z,0
2018-03-19T00:46:01.280Z,0
2018-03-19T00:47:00.748Z,0
2018-03-19T00:48:01.209Z,0
2018-03-19T00:49:01.176Z,0
2018-03-19T00:50:01.147Z,0
2018-03-19T00:51:00.862Z,0
2018-03-19T00:52:01.071Z,0
2018-03-19T00:53:01.044Z,0
2018-03-19T00:54:00.998Z,0
2018-03-19T00:55:00.955Z,0
2018-03-19T00:56:00.929Z,0
2018-03-19T00:57:00.893Z,0
2018-03-19T00:58:00.856Z,0
2018-03-19T00:59:00.823Z,0
2018-03-19T01:00:00.813Z,0
2018-03-19T01:01:00.805Z,0
2018-03-19T01:02:00.716Z,0
2018-03-19T01:03:00.680Z,0
2018-03-19T01:04:00.403Z,0
2018-03-19T01:05:00.612Z,0
2018-03-19T01:06:00.574Z,0
2018-03-19T01:07:00.534Z,0
2018-03-19T01:08:00.501Z,0
2018-03-19T01:09:00.470Z,0
2018-03-19T01:10:00.426Z,0
2018-03-19T01:11:00.392Z,0
2018-03-19T01:12:00.360Z,0
2018-03-19T01:13:00.076Z,0
2018-03-19T01:14:00.039Z,0
2018-03-19T01:15:00.261Z,0
2018-03-19T01:15:59.968Z,0
2018-03-19T01:17:00.189Z,0
2018-03-19T01:18:00.153Z,0
2018-03-19T01:18:59.862Z,0
2018-03-19T01:19:59.829Z,0
2018-03-19T01:21:00.044Z,0
2018-03-19T01:21:59.763Z,0
2018-03-19T01:22:59.973Z,0
2018-03-19T01:23:59.686Z,0
2018-03-19T01:24:59.908Z,0
2018-03-19T01:25:59.861Z,0
2018-03-19T01:26:59.832Z,0
2018-03-19T01:27:59.543Z,0
2018-03-19T01:28:59.762Z,0
2018-03-19T01:29:59.724Z,0
2018-03-19T01:30:59.686Z,0
2018-03-19T01:31:59.399Z,0
2018-03-19T01:32:59.365Z,0
2018-03-19T01:33:59.588Z,0
2018-03-19T01:34:59.566Z,0
2018-03-19T01:35:59.508Z,0
2018-03-19T01:36:59.482Z,0
2018-03-19T01:37:59.441Z,0
2018-03-19T01:38:59.152Z,0
2018-03-19T01:39:59.366Z,0
2018-03-19T01:40:59.089Z,0
2018-03-19T01:41:59.063Z,0
2018-03-19T01:42:59.267Z,0
2018-03-19T01:43:59.229Z,0
2018-03-19T01:44:59.194Z,0
2018-03-19T01:45:59.155Z,0
2018-03-19T01:46:59.114Z,0
2018-03-19T01:47:59.086Z,0
2018-03-19T01:48:59.054Z,0
2018-03-19T01:49:59.013Z,0
2018-03-19T01:50:58.991Z,0
2018-03-19T01:51:58.689Z,0
2018-03-19T01:52:58.657Z,0
2018-03-19T01:53:58.873Z,0
2018-03-19T01:54:58.836Z,0
2018-03-19T01:55:58.801Z,0
2018-03-19T01:56:58.771Z,0
2018-03-19T01:57:58.729Z,0
2018-03-19T01:58:58.441Z,0
2018-03-19T01:59:58.655Z,0
2018-03-19T02:00:58.617Z,0
2018-03-19T02:01:58.583Z,0
2018-03-19T02:02:58.552Z,0
2018-03-19T02:03:58.517Z,0
2018-03-19T02:04:58.478Z,0
2018-03-19T02:05:58.541Z,0
2018-03-19T02:06:58.408Z,0
2018-03-19T02:07:58.378Z,0
2018-03-19T02:08:58.342Z,0
2018-03-19T02:09:58.296Z,0
2018-03-19T02:10:58.261Z,0
2018-03-19T02:11:57.985Z,0
2018-03-19T02:12:58.193Z,0
2018-03-19T02:13:58.169Z,0
2018-03-19T02:14:57.803Z,0
2018-03-19T02:15:58.088Z,0
2018-03-19T02:16:58.052Z,0
2018-03-19T02:17:58.011Z,0
2018-03-19T02:18:57.991Z,0
2018-03-19T02:19:57.698Z,0
2018-03-19T02:20:57.911Z,0
2018-03-19T02:21:57.873Z,0
2018-03-19T02:22:57.829Z,0
2018-03-19T02:23:57.557Z,0
2018-03-19T02:24:57.512Z,0
2018-03-19T02:25:57.724Z,0
2018-03-19T02:26:57.699Z,0
2018-03-19T02:27:57.660Z,0
2018-03-19T02:28:57.619Z,0
2018-03-19T02:29:57.586Z,0
2018-03-19T02:30:57.571Z,0
2018-03-19T02:31:57.515Z,0
2018-03-19T02:32:57.550Z,0
2018-03-19T02:33:57.440Z,0
2018-03-19T02:34:57.406Z,0
2018-03-19T02:35:57.366Z,0
2018-03-19T02:36:57.334Z,0
2018-03-19T02:37:57.310Z,0
2018-03-19T02:38:57.084Z,0
2018-03-19T02:39:57.226Z,0
2018-03-19T02:40:57.200Z,0
2018-03-19T02:41:56.905Z,0
2018-03-19T02:42:56.877Z,0
2018-03-19T02:43:57.087Z,0
2018-03-19T02:44:57.047Z,0
2018-03-19T02:45:56.758Z,0
2018-03-19T02:46:56.836Z,0
2018-03-19T02:47:56.945Z,0
2018-03-19T02:48:56.905Z,0
2018-03-19T02:49:56.879Z,0
2018-03-19T02:50:56.830Z,0
2018-03-19T02:51:56.606Z,0
2018-03-19T02:52:56.764Z,0
2018-03-19T02:53:56.728Z,0
2018-03-19T02:54:56.705Z,0
2018-03-19T02:55:56.402Z,0
2018-03-19T02:56:56.628Z,0
2018-03-19T02:57:56.597Z,0
2018-03-19T02:58:56.547Z,0
2018-03-19T02:59:56.279Z,0
2018-03-19T03:00:56.235Z,0
2018-03-19T03:01:56.442Z,0
2018-03-19T03:02:56.402Z,0
2018-03-19T03:03:56.384Z,0
2018-03-19T03:04:56.351Z,0
2018-03-19T03:05:56.285Z,0
2018-03-19T03:06:56.261Z,0
2018-03-19T03:07:56.217Z,0
2018-03-19T03:08:55.932Z,0
2018-03-19T03:09:55.900Z,0
2018-03-19T03:10:56.114Z,0
2018-03-19T03:11:56.075Z,0
2018-03-19T03:12:56.043Z,0
2018-03-19T03:13:55.749Z,0
2018-03-19T03:14:55.967Z,0
2018-03-19T03:15:55.933Z,0
2018-03-19T03:16:55.398Z,0
2018-03-19T03:17:55.606Z,0
2018-03-19T03:18:55.570Z,0
2018-03-19T03:19:55.791Z,0
2018-03-19T03:20:55.753Z,0
2018-03-19T03:21:55.713Z,0
2018-03-19T03:22:55.439Z,0
2018-03-19T03:23:55.395Z,0
2018-03-19T03:24:55.604Z,0
2018-03-19T03:25:55.574Z,0
2018-03-19T03:26:55.535Z,0
2018-03-19T03:27:55.498Z,0
2018-03-19T03:28:55.210Z,0
2018-03-19T03:29:55.420Z,0
2018-03-19T03:30:55.397Z,0
2018-03-19T03:31:55.099Z,0
2018-03-19T03:32:55.315Z,0
2018-03-19T03:33:55.286Z,0
2018-03-19T03:34:54.992Z,0
2018-03-19T03:35:55.216Z,0
2018-03-19T03:36:55.195Z,0
2018-03-19T03:37:55.187Z,0
2018-03-19T03:38:55.096Z,0
2018-03-19T03:39:54.816Z,0
2018-03-19T03:40:55.032Z,0
2018-03-19T03:41:54.594Z,0
2018-03-19T03:42:54.711Z,0
2018-03-19T03:43:54.915Z,0
2018-03-19T03:44:54.881Z,0
2018-03-19T03:45:54.844Z,0
2018-03-19T03:46:54.816Z,0
2018-03-19T03:47:54.782Z,0
2018-03-19T03:48:54.738Z,0
2018-03-19T03:49:54.450Z,0
2018-03-19T03:50:54.416Z,0
2018-03-19T03:51:54.381Z,0
2018-03-19T03:52:54.593Z,0
2018-03-19T03:53:54.556Z,0
2018-03-19T03:54:54.579Z,0
2018-03-19T03:55:54.483Z,0
2018-03-19T03:56:54.444Z,0
2018-03-19T03:57:54.419Z,0
2018-03-19T03:58:54.370Z,0
2018-03-19T03:59:54.340Z,0
2018-03-19T04:00:54.303Z,0
2018-03-19T04:01:54.270Z,0
2018-03-19T04:02:54.227Z,0
2018-03-19T04:03:54.226Z,0
2018-03-19T04:04:54.153Z,0
2018-03-19T04:05:53.870Z,0
2018-03-19T04:06:54.082Z,0
2018-03-19T04:07:54.046Z,0
2018-03-19T04:08:53.765Z,0
2018-03-19T04:09:53.971Z,0
2018-03-19T04:10:53.952Z,0
2018-03-19T04:11:53.901Z,0
2018-03-19T04:12:53.615Z,0
2018-03-19T04:13:53.829Z,0
2018-03-19T04:14:53.793Z,0
2018-03-19T04:15:53.750Z,0
2018-03-19T04:16:53.717Z,0
2018-03-19T04:17:53.679Z,0
2018-03-19T04:18:53.404Z,0
2018-03-19T04:19:53.362Z,0
2018-03-19T04:20:53.573Z,0
2018-03-19T04:21:53.047Z,0
2018-03-19T04:22:53.500Z,0
2018-03-19T04:23:53.463Z,0
2018-03-19T04:24:53.176Z,0
2018-03-19T04:25:53.392Z,0
2018-03-19T04:26:53.353Z,0
2018-03-19T04:27:53.328Z,0
2018-03-19T04:28:53.288Z,0
2018-03-19T04:29:52.994Z,0
2018-03-19T04:30:53.204Z,0
2018-03-19T04:31:53.174Z,0
2018-03-19T04:32:52.885Z,0
2018-03-19T04:33:53.099Z,0
2018-03-19T04:34:53.061Z,0
2018-03-19T04:35:53.032Z,0
2018-03-19T04:36:53.038Z,0
2018-03-19T04:37:52.998Z,0
2018-03-19T04:38:52.919Z,0
2018-03-19T04:39:52.887Z,0
2018-03-19T04:40:52.844Z,0
2018-03-19T04:41:52.807Z,0
2018-03-19T04:42:52.768Z,0
2018-03-19T04:43:52.486Z,0
2018-03-19T04:44:52.733Z,0
2018-03-19T04:45:52.416Z,0
2018-03-19T04:46:52.641Z,0
2018-03-19T04:47:52.093Z,0
2018-03-19T04:48:52.555Z,0
2018-03-19T04:49:52.529Z,0
2018-03-19T04:50:52.482Z,0
2018-03-19T04:51:52.446Z,0
2018-03-19T04:52:52.406Z,0
2018-03-19T04:53:52.365Z,0
2018-03-19T04:54:52.332Z,0
2018-03-19T04:55:52.306Z,0
2018-03-19T04:56:52.278Z,0
2018-03-19T04:57:52.434Z,0
2018-03-19T04:58:52.188Z,0
2018-03-19T04:59:52.150Z,0
2018-03-19T05:00:52.124Z,0
2018-03-19T05:01:51.842Z,0
2018-03-19T05:02:52.048Z,4
2018-03-19T05:03:52.020Z,0
2018-03-19T05:04:51.966Z,4
2018-03-19T05:05:51.928Z,4
2018-03-19T05:06:51.888Z,4
2018-03-19T05:07:51.866Z,4
2018-03-19T05:08:51.576Z,8
2018-03-19T05:09:51.785Z,8
2018-03-19T05:10:51.745Z,4
2018-03-19T05:11:51.210Z,8
2018-03-19T05:12:51.676Z,12
2018-03-19T05:13:51.640Z,12
2018-03-19T05:14:51.348Z,16
2018-03-19T05:15:51.568Z,20
2018-03-19T05:16:51.529Z,24
2018-03-19T05:17:51.484Z,24
2018-03-19T05:18:51.451Z,32
2018-03-19T05:19:51.417Z,36
2018-03-19T05:20:51.386Z,48
2018-03-19T05:21:51.094Z,52
2018-03-19T05:22:50.812Z,60
2018-03-19T05:23:51.266Z,72
2018-03-19T05:24:51.240Z,84
2018-03-19T05:25:51.201Z,96
2018-03-19T05:26:51.152Z,112
2018-03-19T05:27:50.873Z,128
2018-03-19T05:28:51.089Z,144
2018-03-19T05:29:51.047Z,164
2018-03-19T05:30:51.018Z,188
2018-03-19T05:31:50.973Z,208
2018-03-19T05:32:50.938Z,232
2018-03-19T05:33:50.913Z,256
2018-03-19T05:34:50.616Z,284
2018-03-19T05:35:50.825Z,316
2018-03-19T05:36:50.791Z,344
2018-03-19T05:37:50.753Z,372
2018-03-19T05:38:50.466Z,408
2018-03-19T05:39:50.673Z,440
2018-03-19T05:40:50.395Z,472
2018-03-19T05:41:50.597Z,508
2018-03-19T05:42:50.570Z,548
2018-03-19T05:43:50.530Z,584
2018-03-19T05:44:50.492Z,624
2018-03-19T05:45:50.455Z,660
2018-03-19T05:46:50.429Z,700
2018-03-19T05:47:50.136Z,740
2018-03-19T05:48:49.848Z,776
2018-03-19T05:49:50.064Z,808
2018-03-19T05:50:50.278Z,844
2018-03-19T05:51:50.242Z,880
2018-03-19T05:52:50.253Z,924
2018-03-19T05:53:50.163Z,972
2018-03-19T05:54:49.877Z,1016
2018-03-19T05:55:50.094Z,1060
2018-03-19T05:56:50.170Z,1112
2018-03-19T05:57:50.016Z,1160
2018-03-19T05:58:49.989Z,1204
2018-03-19T05:59:49.943Z,1244
2018-03-19T06:00:49.906Z,1284
2018-03-19T06:01:49.936Z,1324
2018-03-19T06:02:49.896Z,1368
2018-03-19T06:03:49.550Z,1412
2018-03-19T06:04:49.513Z,1460
2018-03-19T06:05:49.721Z,1508
2018-03-19T06:06:49.734Z,1556
2018-03-19T06:07:49.655Z,1608
2018-03-19T06:08:49.621Z,1656
2018-03-19T06:09:49.575Z,1708
2018-03-19T06:10:49.290Z,1760
2018-03-19T06:11:49.502Z,1816
2018-03-19T06:12:49.468Z,1868
2018-03-19T06:13:49.181Z,1928
2018-03-19T06:14:49.403Z,1984
2018-03-19T06:15:49.359Z,2044
2018-03-19T06:16:49.065Z,2104
2018-03-19T06:17:49.281Z,2164
2018-03-19T06:18:49.245Z,2228
2018-03-19T06:19:49.206Z,2292
2018-03-19T06:20:49.181Z,2356
2018-03-19T06:21:49.134Z,2424
2018-03-19T06:22:49.100Z,2492
2018-03-19T06:23:49.066Z,2564
2018-03-19T06:24:49.025Z,2636
2018-03-19T06:25:48.742Z,2704
2018-03-19T06:26:48.965Z,2776
2018-03-19T06:27:48.919Z,2844
2018-03-19T06:28:48.872Z,2912
2018-03-19T06:29:48.893Z,2980
2018-03-19T06:30:48.817Z,3048
2018-03-19T06:31:48.769Z,3116
2018-03-19T06:32:48.738Z,3188
2018-03-19T06:33:48.815Z,3260
2018-03-19T06:34:48.662Z,3332
2018-03-19T06:35:49.586Z,3404
2018-03-19T06:36:48.596Z,3480
2018-03-19T06:37:48.603Z,3548
2018-03-19T06:38:48.519Z,3604
2018-03-19T06:39:48.479Z,3664
2018-03-19T06:40:48.437Z,3716
2018-03-19T06:41:48.404Z,3760
2018-03-19T06:42:48.375Z,3792
2018-03-19T06:43:48.087Z,3824
2018-03-19T06:44:48.305Z,3856
2018-03-19T06:45:48.265Z,3892
2018-03-19T06:46:48.225Z,3928
2018-03-19T06:47:48.192Z,3964
2018-03-19T06:48:47.903Z,3992
2018-03-19T06:49:48.150Z,4012
2018-03-19T06:50:48.082Z,4032
2018-03-19T06:51:48.047Z,4048
2018-03-19T06:52:48.004Z,4064
2018-03-19T06:53:47.726Z,4080
2018-03-19T06:54:47.936Z,4112
2018-03-19T06:55:47.904Z,4152
2018-03-19T06:56:47.863Z,4188
2018-03-19T06:57:47.577Z,4212
2018-03-19T06:58:47.794Z,4228
2018-03-19T06:59:47.510Z,4252
2018-03-19T07:00:47.726Z,4288
2018-03-19T07:01:47.683Z,4336
2018-03-19T07:02:47.398Z,4372
2018-03-19T07:03:47.614Z,4404
2018-03-19T07:04:47.326Z,4432
2018-03-19T07:05:47.612Z,4468
2018-03-19T07:06:47.256Z,4524
2018-03-19T07:07:47.218Z,4592
2018-03-19T07:08:47.435Z,4668
2018-03-19T07:09:47.393Z,4744
2018-03-19T07:10:47.109Z,4812
2018-03-19T07:11:47.320Z,4900
2018-03-19T07:12:47.039Z,5020
2018-03-19T07:13:46.999Z,5168
2018-03-19T07:14:47.225Z,5328
2018-03-19T07:15:47.182Z,5476
2018-03-19T07:16:47.450Z,5604
2018-03-19T07:17:46.859Z,5740
2018-03-19T07:18:46.844Z,5892
2018-03-19T07:19:47.039Z,6100
2018-03-19T07:20:46.995Z,6344
2018-03-19T07:21:46.984Z,6608
2018-03-19T07:22:46.926Z,6884
2018-03-19T07:23:46.889Z,7160
2018-03-19T07:24:46.855Z,7392
2018-03-19T07:25:46.815Z,7604
2018-03-19T07:26:46.784Z,7796
2018-03-19T07:27:46.756Z,7992
2018-03-19T07:28:46.855Z,8152
2018-03-19T07:29:46.681Z,8280
2018-03-19T07:30:46.398Z,8408
2018-03-19T07:31:46.502Z,8544
2018-03-19T07:32:46.571Z,8676
2018-03-19T07:33:46.286Z,8776
2018-03-19T07:34:46.843Z,8912
2018-03-19T07:35:46.466Z,9048
2018-03-19T07:36:46.430Z,9120
2018-03-19T07:37:46.146Z,9228
2018-03-19T07:38:46.363Z,9344
2018-03-19T07:39:46.082Z,9416
2018-03-19T07:40:46.297Z,9436
2018-03-19T07:41:46.270Z,9432
2018-03-19T07:42:46.214Z,9428
2018-03-19T07:43:45.961Z,9452
2018-03-19T07:44:46.152Z,9464
2018-03-19T07:45:46.118Z,9428
2018-03-19T07:46:46.508Z,9384
2018-03-19T07:47:46.503Z,9304
2018-03-19T07:48:46.460Z,9168
2018-03-19T07:49:46.295Z,9012
2018-03-19T07:50:45.949Z,8768
2018-03-19T07:51:45.658Z,8620
2018-03-19T07:52:45.619Z,8460
2018-03-19T07:53:45.833Z,8216
2018-03-19T07:54:45.803Z,7944
2018-03-19T07:55:45.267Z,7640
2018-03-19T07:56:45.735Z,7328
2018-03-19T07:57:45.444Z,7164
2018-03-19T07:58:45.670Z,7152
2018-03-19T07:59:45.503Z,7104
2018-03-19T08:00:46.030Z,7076
2018-03-19T08:01:45.649Z,7056
2018-03-19T08:02:45.484Z,7036
2018-03-19T08:03:45.794Z,7000
2018-03-19T08:04:46.123Z,6968
2018-03-19T08:05:45.511Z,6980
2018-03-19T08:06:44.889Z,7012
2018-03-19T08:07:45.351Z,7040
2018-03-19T08:08:45.318Z,7048
2018-03-19T08:09:45.285Z,7060
2018-03-19T08:10:44.999Z,7060
2018-03-19T08:11:45.221Z,7072
2018-03-19T08:12:45.205Z,7112
2018-03-19T08:13:45.457Z,7128
2018-03-19T08:14:45.901Z,7056
2018-03-19T08:15:46.357Z,6936
2018-03-19T08:16:47.779Z,6936
2018-03-19T08:17:46.523Z,6920
2018-03-19T08:18:46.558Z,6996
2018-03-19T08:19:46.949Z,7036
2018-03-19T08:20:44.917Z,7168
2018-03-19T08:21:44.369Z,7272
2018-03-19T08:22:44.594Z,7368
2018-03-19T08:23:46.293Z,7384
2018-03-19T08:24:45.004Z,7376
2018-03-19T08:25:44.702Z,7384
2018-03-19T08:26:44.446Z,7356
2018-03-19T08:27:45.402Z,7224
2018-03-19T08:28:46.334Z,7144
2018-03-19T08:29:44.901Z,7120
2018-03-19T08:30:44.556Z,7088
2018-03-19T08:31:44.515Z,7064
2018-03-19T08:32:44.488Z,7000
2018-03-19T08:33:44.451Z,7076
2018-03-19T08:34:44.418Z,7068
2018-03-19T08:35:44.382Z,7088
2018-03-19T08:36:44.435Z,7040
2018-03-19T08:37:44.065Z,6980
2018-03-19T08:38:44.284Z,6892
2018-03-19T08:39:44.286Z,6892
2018-03-19T08:40:43.962Z,6888
2018-03-19T08:41:43.932Z,6884
2018-03-19T08:42:44.147Z,6872
2018-03-19T08:43:44.108Z,6860
2018-03-19T08:44:44.072Z,6880
2018-03-19T08:45:43.544Z,6912
2018-03-19T08:46:43.800Z,6908
2018-03-19T08:47:43.987Z,6856
2018-03-19T08:48:43.437Z,6820
2018-03-19T08:49:43.901Z,6792
2018-03-19T08:50:44.407Z,6740
2018-03-19T08:51:45.047Z,6780
2018-03-19T08:52:43.797Z,6776
2018-03-19T08:53:44.047Z,6884
2018-03-19T08:54:43.433Z,6780
2018-03-19T08:55:43.974Z,6756
2018-03-19T08:56:43.657Z,6704
2018-03-19T08:57:43.621Z,6764
2018-03-19T08:58:43.390Z,6740
2018-03-19T08:59:43.557Z,6744
2018-03-19T09:00:43.524Z,6672
2018-03-19T09:01:43.490Z,6664
2018-03-19T09:02:43.201Z,6584
2018-03-19T09:03:43.166Z,6528
2018-03-19T09:04:43.460Z,6528
2018-03-19T09:05:42.853Z,6560
2018-03-19T09:06:43.319Z,6604
2018-03-19T09:07:43.279Z,6660
2018-03-19T09:08:42.993Z,6712
2018-03-19T09:09:43.211Z,6768
2018-03-19T09:10:43.187Z,6852
2018-03-19T09:11:42.915Z,6860
2018-03-19T09:12:43.112Z,6840
2018-03-19T09:13:42.822Z,6824
2018-03-19T09:14:45.053Z,6860
2018-03-19T09:15:43.241Z,6860
2018-03-19T09:16:43.260Z,6848
2018-03-19T09:17:42.704Z,6816
2018-03-19T09:18:42.655Z,6812
2018-03-19T09:19:42.369Z,6764
2018-03-19T09:20:42.832Z,6736
2018-03-19T09:21:42.648Z,6692
2018-03-19T09:22:42.513Z,6628
2018-03-19T09:23:42.239Z,6652
2018-03-19T09:24:42.695Z,6700
2018-03-19T09:25:42.419Z,6644
2018-03-19T09:26:42.128Z,6712
2018-03-19T09:27:42.350Z,6708
2018-03-19T09:28:42.311Z,6776
2018-03-19T09:29:42.285Z,6784
2018-03-19T09:30:41.996Z,6764
2018-03-19T09:31:42.272Z,6756
2018-03-19T09:32:42.176Z,6760
2018-03-19T09:33:42.396Z,6748
2018-03-19T09:34:42.406Z,6760
2018-03-19T09:35:42.325Z,6764
2018-03-19T09:36:42.546Z,6764
2018-03-19T09:37:42.492Z,6780
2018-03-19T09:38:42.228Z,6840
2018-03-19T09:39:42.201Z,6872
2018-03-19T09:40:41.939Z,6824
2018-03-19T09:41:42.022Z,6800
2018-03-19T09:42:41.603Z,6836
2018-03-19T09:43:42.795Z,6860
2018-03-19T09:44:42.018Z,6888
2018-03-19T09:45:42.042Z,6912
2018-03-19T09:46:41.953Z,6920
2018-03-19T09:47:41.943Z,6916
2018-03-19T09:48:41.948Z,6924
2018-03-19T09:49:41.610Z,6908
2018-03-19T09:50:41.973Z,6888
2018-03-19T09:51:41.778Z,6896
2018-03-19T09:52:41.748Z,6896
2018-03-19T09:53:41.710Z,6916
2018-03-19T09:54:41.857Z,6808
2018-03-19T09:55:41.926Z,6724
2018-03-19T09:56:41.617Z,6808
2018-03-19T09:57:41.577Z,6872
2018-03-19T09:58:41.541Z,6816
2018-03-19T09:59:41.526Z,6888
2018-03-19T10:00:41.475Z,6960
2018-03-19T10:01:41.444Z,6968
2018-03-19T10:02:41.406Z,6968
2018-03-19T10:03:41.379Z,6968
2018-03-19T10:04:41.342Z,6976
2018-03-19T10:05:41.313Z,6980
2018-03-19T10:06:41.282Z,6972
2018-03-19T10:07:40.995Z,6956
2018-03-19T10:08:41.302Z,6940
2018-03-19T10:09:41.181Z,6936
2018-03-19T10:10:41.142Z,6920
2018-03-19T10:11:40.863Z,6904
2018-03-19T10:12:41.071Z,6888
2018-03-19T10:13:41.046Z,6884
2018-03-19T10:14:40.763Z,6904
2018-03-19T10:15:40.978Z,6872
2018-03-19T10:16:40.448Z,6884
2018-03-19T10:17:40.903Z,6904
2018-03-19T10:18:40.871Z,6936
2018-03-19T10:19:40.590Z,6952
2018-03-19T10:20:40.313Z,6960
2018-03-19T10:21:40.574Z,6948
2018-03-19T10:22:41.133Z,6932
2018-03-19T10:23:41.133Z,6936
2018-03-19T10:24:40.420Z,6920
2018-03-19T10:25:40.640Z,6908
2018-03-19T10:26:40.646Z,6884
2018-03-19T10:27:40.682Z,6888
2018-03-19T10:28:40.609Z,6892
2018-03-19T10:29:40.803Z,6904
2018-03-19T10:30:40.727Z,6904
2018-03-19T10:31:40.284Z,6912
2018-03-19T10:32:40.197Z,6972
2018-03-19T10:33:40.595Z,6932
2018-03-19T10:34:40.399Z,6936
2018-03-19T10:35:40.322Z,6944
2018-03-19T10:36:40.178Z,6944
2018-03-19T10:37:40.805Z,6944
2018-03-19T10:38:40.427Z,6936
2018-03-19T10:39:40.257Z,6944
2018-03-19T10:40:40.024Z,6948
2018-03-19T10:41:39.966Z,6956
2018-03-19T10:42:40.110Z,6948
2018-03-19T10:43:40.115Z,6936
2018-03-19T10:44:39.878Z,6940
2018-03-19T10:45:40.165Z,6956
2018-03-19T10:46:40.082Z,6956
2018-03-19T10:47:39.970Z,6948
2018-03-19T10:48:39.643Z,6948
2018-03-19T10:49:39.934Z,6960
2018-03-19T10:50:39.578Z,6976
2018-03-19T10:51:39.821Z,6984
2018-03-19T10:52:39.548Z,6988
2018-03-19T10:53:39.754Z,6992
2018-03-19T10:54:39.787Z,6988
2018-03-19T10:55:39.726Z,6992
2018-03-19T10:56:39.632Z,7008
2018-03-19T10:57:39.625Z,6924
2018-03-19T10:58:39.692Z,7004
2018-03-19T10:59:39.550Z,7112
2018-03-19T11:00:39.275Z,7104
2018-03-19T11:01:39.493Z,7096
2018-03-19T11:02:39.444Z,7080
2018-03-19T11:03:39.153Z,7060
2018-03-19T11:04:39.162Z,7068
2018-03-19T11:05:39.097Z,7088
2018-03-19T11:06:39.483Z,7092
2018-03-19T11:07:39.039Z,7084
2018-03-19T11:08:39.687Z,7136
2018-03-19T11:09:38.974Z,7156
2018-03-19T11:10:39.161Z,7156
2018-03-19T11:11:39.130Z,7164
2018-03-19T11:12:38.603Z,7176
2018-03-19T11:13:39.068Z,7180
2018-03-19T11:14:39.059Z,7176
2018-03-19T11:15:38.549Z,7160
2018-03-19T11:16:38.534Z,7144
2018-03-19T11:17:38.867Z,7148
2018-03-19T11:18:38.687Z,7132
2018-03-19T11:19:38.919Z,6968
2018-03-19T11:20:38.989Z,7228
2018-03-19T11:21:38.804Z,7220
2018-03-19T11:22:39.567Z,6840
2018-03-19T11:23:38.496Z,6984
2018-03-19T11:24:38.705Z,7152
2018-03-19T11:25:38.430Z,7188
2018-03-19T11:26:38.704Z,7220
2018-03-19T11:27:38.602Z,7232
2018-03-19T11:28:38.614Z,7264
2018-03-19T11:29:38.557Z,7300
2018-03-19T11:30:38.646Z,7304
2018-03-19T11:31:38.228Z,7268
2018-03-19T11:32:38.444Z,7244
2018-03-19T11:33:38.166Z,7236
2018-03-19T11:34:38.391Z,7244
2018-03-19T11:35:38.347Z,7264
2018-03-19T11:36:38.441Z,7260
2018-03-19T11:37:38.286Z,7264
2018-03-19T11:38:38.254Z,7276
2018-03-19T11:39:38.224Z,7324
2018-03-19T11:40:38.195Z,7372
2018-03-19T11:41:37.666Z,7424
2018-03-19T11:42:38.132Z,7468
2018-03-19T11:43:37.847Z,7532
2018-03-19T11:44:38.065Z,7592
2018-03-19T11:45:38.031Z,7624
2018-03-19T11:46:38.110Z,7616
2018-03-19T11:47:37.975Z,7596
2018-03-19T11:48:37.688Z,7580
2018-03-19T11:49:37.903Z,7532
2018-03-19T11:50:37.625Z,7488
2018-03-19T11:51:37.840Z,7464
2018-03-19T11:52:37.852Z,7456
2018-03-19T11:53:38.704Z,7448
2018-03-19T11:54:37.747Z,7468
2018-03-19T11:55:37.728Z,7472
2018-03-19T11:56:37.679Z,7480
2018-03-19T11:57:37.716Z,7492
2018-03-19T11:58:37.619Z,7496
2018-03-19T11:59:37.587Z,7528
2018-03-19T12:00:37.557Z,7540
2018-03-19T12:01:37.280Z,7572
2018-03-19T12:02:37.240Z,7564
2018-03-19T12:03:37.210Z,7592
2018-03-19T12:04:37.183Z,7564
2018-03-19T12:05:37.397Z,7576
2018-03-19T12:06:37.365Z,7584
2018-03-19T12:07:37.334Z,7584
2018-03-19T12:08:37.310Z,7580
2018-03-19T12:09:37.021Z,7612
2018-03-19T12:10:36.995Z,7628
2018-03-19T12:11:36.965Z,7628
2018-03-19T12:12:36.924Z,7620
2018-03-19T12:13:37.149Z,7556
2018-03-19T12:14:36.866Z,7612
2018-03-19T12:15:37.690Z,7596
2018-03-19T12:16:37.719Z,7584
2018-03-19T12:17:37.023Z,7508
2018-03-19T12:18:36.992Z,7492
2018-03-19T12:19:37.602Z,7492
2018-03-19T12:20:36.677Z,7452
2018-03-19T12:21:36.892Z,7560
2018-03-19T12:22:36.615Z,7660
2018-03-19T12:23:36.581Z,7656
2018-03-19T12:24:36.799Z,7628
2018-03-19T12:25:36.519Z,7772
2018-03-19T12:26:36.745Z,7760
2018-03-19T12:27:36.706Z,7752
2018-03-19T12:28:36.683Z,7728
2018-03-19T12:29:36.648Z,7728
2018-03-19T12:30:36.611Z,7720
2018-03-19T12:31:36.635Z,7696
2018-03-19T12:32:36.573Z,7676
2018-03-19T12:33:36.269Z,7680
2018-03-19T12:34:36.490Z,7656
2018-03-19T12:35:36.501Z,7624
2018-03-19T12:36:36.237Z,7516
2018-03-19T12:37:36.400Z,7344
2018-03-19T12:38:36.359Z,7340
2018-03-19T12:39:36.274Z,7300
2018-03-19T12:40:37.022Z,7404
2018-03-19T12:41:37.269Z,7424
2018-03-19T12:42:36.533Z,7192
2018-03-19T12:43:36.734Z,7800
2018-03-19T12:44:35.694Z,7844
2018-03-19T12:45:36.861Z,7944
2018-03-19T12:46:35.881Z,8012
2018-03-19T12:47:36.105Z,8008
2018-03-19T12:48:36.130Z,7956
2018-03-19T12:49:35.787Z,7888
2018-03-19T12:50:35.784Z,7808
2018-03-19T12:51:35.971Z,7832
2018-03-19T12:52:35.960Z,7876
2018-03-19T12:53:35.941Z,7880
2018-03-19T12:54:35.625Z,7896
2018-03-19T12:55:35.844Z,7848
2018-03-19T12:56:35.320Z,7764
2018-03-19T12:57:35.796Z,7784
2018-03-19T12:58:35.840Z,7808
2018-03-19T12:59:35.469Z,7772
2018-03-19T13:00:35.975Z,7740
2018-03-19T13:01:35.374Z,7652
2018-03-19T13:02:36.197Z,7568
2018-03-19T13:03:35.598Z,7480
2018-03-19T13:04:35.313Z,7424
2018-03-19T13:05:35.529Z,7244
2018-03-19T13:06:35.597Z,6916
2018-03-19T13:07:35.329Z,6936
2018-03-19T13:08:35.190Z,7208
2018-03-19T13:09:35.498Z,7172
2018-03-19T13:10:35.423Z,7288
2018-03-19T13:11:35.291Z,7272
2018-03-19T13:12:35.460Z,7284
2018-03-19T13:13:35.283Z,7276
2018-03-19T13:14:35.254Z,7348
2018-03-19T13:15:34.980Z,7316
2018-03-19T13:16:35.499Z,7308
2018-03-19T13:17:36.649Z,7256
2018-03-19T13:18:35.179Z,7208
2018-03-19T13:19:34.991Z,7240
2018-03-19T13:20:35.136Z,7228
2018-03-19T13:21:35.403Z,7216
2018-03-19T13:22:35.194Z,7164
2018-03-19T13:23:35.106Z,7132
2018-03-19T13:24:34.977Z,7112
2018-03-19T13:25:34.433Z,7104
2018-03-19T13:26:35.594Z,7112
2018-03-19T13:27:34.602Z,7112
2018-03-19T13:28:35.032Z,7096
2018-03-19T13:29:35.332Z,7056
2018-03-19T13:30:34.517Z,7072
2018-03-19T13:31:34.742Z,7028
2018-03-19T13:32:34.707Z,6984
2018-03-19T13:33:34.720Z,6980
2018-03-19T13:34:34.392Z,7032
2018-03-19T13:35:34.369Z,7096
2018-03-19T13:36:34.088Z,7124
2018-03-19T13:37:34.723Z,7180
2018-03-19T13:38:34.992Z,7168
2018-03-19T13:39:34.059Z,7180
2018-03-19T13:40:34.708Z,7216
2018-03-19T13:41:34.439Z,7276
2018-03-19T13:42:34.405Z,7352
2018-03-19T13:43:34.367Z,7420
2018-03-19T13:44:34.093Z,7456
2018-03-19T13:45:34.311Z,7492
2018-03-19T13:46:34.045Z,7548
2018-03-19T13:47:34.002Z,7600
2018-03-19T13:48:34.223Z,7612
2018-03-19T13:49:34.195Z,7588
2018-03-19T13:50:34.129Z,7576